Date,TemperatureHighF,TemperatureAvgF,TemperatureLowF,DewpointHighF,DewpointAvgF,DewpointLowF,HumidityHigh,HumidityAvg,HumidityLow,PressureMaxIn,PressureMinIn,WindSpeedMaxMPH,WindSpeedAvgMPH,GustSpeedMaxMPH,PrecipitationSumIn
2013-7-1,89,82,73,80,76,70,97,82,70,30.05,29.92,17,2,17,0.25
2013-7-2,89,82,76,79,77,74,96,83,71,30.12,29.98,13,2,14,0.26
2013-7-3,88,81,77,79,76,74,92,83,70,30.13,30.05,14,2,16,0.23
2013-7-4,89,84,78,78,76,72,88,77,64,30.16,30.07,14,2,14,0.02
2013-7-5,86,81,76,79,76,73,93,84,73,30.15,30.06,13,1,14,0.46
2013-7-6,90,83,80,78,75,73,87,79,64,30.13,30.04,11,1,12,0.16
2013-7-7,90,83,78,79,76,73,90,78,66,30.11,30.03,17,1,17,0.06
2013-7-8,91,84,79,77,74,72,86,74,59,30.15,30.08,9,1,10,0.00
2013-7-9,89,81,74,76,73,70,92,77,57,30.14,30.05,7,1,10,0.13
2013-7-10,85,78,70,76,74,68,98,86,74,30.09,30.00,10,1,11,0.58
2013-7-11,89,82,76,78,75,73,94,80,67,30.05,29.95,12,1,12,0.00
2013-7-12,91,80,75,77,74,69,97,81,56,29.97,29.90,13,1,13,0.00
2013-7-13,88,76,72,77,73,71,98,92,70,30.04,29.92,10,0,10,0.66
2013-7-14,90,79,72,77,73,70,98,85,61,30.10,29.99,11,1,11,0.22
2013-7-15,89,80,71,78,74,70,98,83,63,30.10,30.01,10,0,11,0.21
2013-7-16,84,78,72,75,72,69,97,83,66,30.15,30.05,21,1,21,0.75
2013-7-17,81,78,73,75,73,69,96,86,74,30.15,30.05,14,0,14,0.23
2013-7-18,85,76,72,77,73,69,99,91,72,30.13,30.06,16,0,16,0.42
2013-7-19,88,80,72,79,76,72,99,87,72,30.14,30.05,12,1,12,0.14
2013-7-20,88,82,77,80,77,73,91,85,72,30.12,30.04,15,2,16,0.00
2013-7-21,88,80,74,80,76,72,97,87,72,30.17,30.05,11,1,11,0.36
2013-7-22,88,82,74,78,76,73,98,82,66,30.15,30.07,8,2,14,0.36
2013-7-23,90,83,75,79,76,74,96,80,64,30.11,29.98,15,2,15,0.00
2013-7-24,94,84,77,78,74,68,94,73,51,30.03,29.91,12,1,12,0.00
2013-7-25,94,84,74,77,74,71,96,74,53,30.02,29.92,12,1,12,0.00
2013-7-26,93,83,78,78,75,73,90,79,56,30.03,29.94,13,1,15,0.00
2013-7-27,90,80,75,78,75,72,95,87,66,30.01,29.94,12,1,12,0.09
2013-7-28,86,79,74,79,75,71,96,89,72,30.08,29.96,9,0,9,0.57
2013-7-29,90,82,75,80,76,74,97,84,69,30.14,30.03,8,0,9,0.00
2013-7-30,91,84,76,80,77,69,96,81,67,30.17,30.08,11,1,11,0.02
2013-7-31,92,85,80,79,76,72,91,76,61,30.12,30.01,10,1,10,0.01